createdAt,value
2023-05-10T00:00:18.383Z,0
2023-05-10T00:01:34.665Z,0
2023-05-10T00:02:49.998Z,0
2023-05-10T00:04:05.301Z,0
2023-05-10T00:06:37.892Z,0
2023-05-10T00:07:54.189Z,0
2023-05-10T00:09:10.478Z,0
2023-05-10T00:10:26.776Z,0
2023-05-10T00:11:43.066Z,0
2023-05-10T00:12:59.364Z,0
2023-05-10T00:14:15.661Z,0
2023-05-10T00:15:31.945Z,0
2023-05-10T00:16:48.250Z,0
2023-05-10T00:18:04.545Z,0
2023-05-10T00:19:20.829Z,0
2023-05-10T00:21:52.433Z,0
2023-05-10T00:23:07.742Z,0
2023-05-10T00:24:23.064Z,0
2023-05-10T00:25:39.354Z,0
2023-05-10T00:26:55.647Z,0
2023-05-10T00:28:11.943Z,0
2023-05-10T00:29:28.238Z,0
2023-05-10T00:30:44.530Z,0
2023-05-10T00:32:00.825Z,0
2023-05-10T00:33:17.120Z,0
2023-05-10T00:34:33.404Z,0
2023-05-10T00:35:48.729Z,0
2023-05-10T00:37:04.047Z,0
2023-05-10T00:38:20.325Z,0
2023-05-10T00:39:36.619Z,0
2023-05-10T00:40:52.921Z,0
2023-05-10T00:42:09.213Z,0
2023-05-10T00:43:25.499Z,0
2023-05-10T00:44:41.798Z,0
2023-05-10T00:45:58.108Z,0
2023-05-10T00:47:14.386Z,0
2023-05-10T00:48:29.713Z,0
2023-05-10T00:49:45.018Z,0
2023-05-10T00:51:01.314Z,0
2023-05-10T00:52:17.603Z,0
2023-05-10T00:53:33.910Z,0
2023-05-10T00:54:50.197Z,0
2023-05-10T00:56:06.478Z,0
2023-05-10T00:57:22.789Z,0
2023-05-10T00:59:55.369Z,0
2023-05-10T01:01:11.668Z,0
2023-05-10T01:02:27.956Z,0
2023-05-10T01:03:44.263Z,0
2023-05-10T01:05:00.553Z,0
2023-05-10T01:06:15.859Z,0
2023-05-10T01:07:32.149Z,0
2023-05-10T01:08:47.462Z,0
2023-05-10T01:10:03.769Z,0
2023-05-10T01:11:20.062Z,0
2023-05-10T01:12:36.345Z,0
2023-05-10T01:13:52.653Z,0
2023-05-10T01:15:08.928Z,0
2023-05-10T01:16:25.238Z,0
2023-05-10T01:17:41.533Z,0
2023-05-10T01:18:57.827Z,0
2023-05-10T01:20:14.116Z,0
2023-05-10T01:21:30.400Z,0
2023-05-10T01:22:46.706Z,0
2023-05-10T01:24:03.003Z,0
2023-05-10T01:25:18.307Z,0
2023-05-10T01:26:34.602Z,0
2023-05-10T01:27:50.890Z,0
2023-05-10T01:29:07.192Z,0
2023-05-10T01:30:23.477Z,0
2023-05-10T01:31:39.785Z,0
2023-05-10T01:32:56.064Z,0
2023-05-10T01:34:12.370Z,0
2023-05-10T01:35:28.661Z,0
2023-05-10T01:36:44.960Z,0
2023-05-10T01:38:01.249Z,0
2023-05-10T01:39:17.549Z,0
2023-05-10T01:40:33.833Z,0
2023-05-10T01:41:49.155Z,0
2023-05-10T01:43:05.439Z,0
2023-05-10T01:45:38.038Z,0
2023-05-10T01:46:54.326Z,0
2023-05-10T01:48:10.625Z,0
2023-05-10T01:49:26.922Z,0
2023-05-10T01:50:43.202Z,0
2023-05-10T01:51:59.506Z,0
2023-05-10T01:53:15.799Z,0
2023-05-10T01:54:32.086Z,0
2023-05-10T01:55:48.385Z,0
2023-05-10T01:57:04.667Z,0
2023-05-10T01:58:19.979Z,0
2023-05-10T01:59:36.289Z,0
2023-05-10T02:00:52.568Z,0
2023-05-10T02:02:08.873Z,0
2023-05-10T02:03:25.166Z,0
2023-05-10T02:04:41.456Z,0
2023-05-10T02:05:57.744Z,0
2023-05-10T02:08:30.331Z,0
2023-05-10T02:09:46.640Z,0
2023-05-10T02:11:02.935Z,0
2023-05-10T02:12:19.218Z,0
2023-05-10T02:13:35.524Z,0
2023-05-10T02:16:07.117Z,0
2023-05-10T02:18:39.712Z,0
2023-05-10T02:19:55.018Z,0
2023-05-10T02:21:10.344Z,0
2023-05-10T02:23:42.928Z,0
2023-05-10T02:24:59.215Z,0
2023-05-10T02:26:15.506Z,0
2023-05-10T02:27:31.797Z,0
2023-05-10T02:28:48.095Z,0
2023-05-10T02:31:20.689Z,0
2023-05-10T02:32:36.981Z,0
2023-05-10T02:33:53.267Z,0
2023-05-10T02:35:08.550Z,0
2023-05-10T02:36:23.858Z,0
2023-05-10T02:37:40.149Z,0
2023-05-10T02:38:56.447Z,0
2023-05-10T02:40:12.741Z,0
2023-05-10T02:41:28.977Z,0
2023-05-10T02:42:45.234Z,0
2023-05-10T02:44:01.527Z,0
2023-05-10T02:46:34.057Z,0
2023-05-10T02:47:50.297Z,0
2023-05-10T02:49:06.552Z,0
2023-05-10T02:50:22.789Z,0
2023-05-10T02:51:39.035Z,0
2023-05-10T02:54:10.533Z,0
2023-05-10T02:55:26.775Z,0
2023-05-10T02:56:43.010Z,0
2023-05-10T02:57:59.256Z,0
2023-05-10T02:59:15.493Z,0
2023-05-10T03:00:31.743Z,0
2023-05-10T03:01:47.969Z,0
2023-05-10T03:03:04.211Z,0
2023-05-10T03:04:20.475Z,0
2023-05-10T03:05:36.702Z,0
2023-05-10T03:06:52.941Z,0
2023-05-10T03:08:09.171Z,0
2023-05-10T03:09:25.420Z,0
2023-05-10T03:10:40.673Z,0
2023-05-10T03:11:56.904Z,0
2023-05-10T03:13:12.168Z,5
2023-05-10T03:14:27.429Z,5
2023-05-10T03:16:59.913Z,5
2023-05-10T03:18:16.146Z,5
2023-05-10T03:19:32.386Z,5
2023-05-10T03:20:48.639Z,5
2023-05-10T03:22:04.868Z,11
2023-05-10T03:24:37.349Z,11
2023-05-10T03:25:53.589Z,11
2023-05-10T03:27:09.828Z,11
2023-05-10T03:28:26.221Z,16
2023-05-10T03:29:42.465Z,16
2023-05-10T03:30:57.703Z,16
2023-05-10T03:32:13.944Z,16
2023-05-10T03:33:30.181Z,22
2023-05-10T03:34:46.432Z,28
2023-05-10T03:36:02.663Z,33
2023-05-10T03:37:18.903Z,39
2023-05-10T03:39:51.383Z,39
2023-05-10T03:41:07.625Z,45
2023-05-10T03:42:23.874Z,50
2023-05-10T03:43:40.111Z,50
2023-05-10T03:44:56.361Z,56
2023-05-10T03:46:12.598Z,67
2023-05-10T03:47:28.837Z,67
2023-05-10T03:48:44.080Z,78
2023-05-10T03:50:00.326Z,84
2023-05-10T03:51:16.569Z,90
2023-05-10T03:52:32.819Z,95
2023-05-10T03:53:49.056Z,106
2023-05-10T03:55:05.299Z,123
2023-05-10T03:56:20.561Z,140
2023-05-10T03:57:35.803Z,168
2023-05-10T03:58:52.042Z,191
2023-05-10T04:00:08.292Z,196
2023-05-10T04:02:40.769Z,270
2023-05-10T04:03:57.006Z,286
2023-05-10T04:05:13.243Z,281
2023-05-10T04:06:29.496Z,275
2023-05-10T04:07:45.722Z,253
2023-05-10T04:10:18.203Z,219
2023-05-10T04:11:33.461Z,208
2023-05-10T04:12:48.728Z,208
2023-05-10T04:14:04.960Z,213
2023-05-10T04:15:21.196Z,191
2023-05-10T04:16:37.443Z,163
2023-05-10T04:17:53.682Z,123
2023-05-10T04:19:09.915Z,106
2023-05-10T04:21:42.405Z,106
2023-05-10T04:22:58.633Z,106
2023-05-10T04:24:14.879Z,106
2023-05-10T04:25:31.130Z,112
2023-05-10T04:26:47.367Z,112
2023-05-10T04:28:03.610Z,112
2023-05-10T04:29:18.851Z,112
2023-05-10T04:30:35.090Z,112
2023-05-10T04:31:51.344Z,112
2023-05-10T04:33:07.585Z,112
2023-05-10T04:34:23.824Z,118
2023-05-10T04:35:40.053Z,118
2023-05-10T04:36:56.302Z,118
2023-05-10T04:38:11.551Z,118
2023-05-10T04:39:26.822Z,123
2023-05-10T04:40:43.051Z,123
2023-05-10T04:41:59.290Z,123
2023-05-10T04:43:15.546Z,123
2023-05-10T04:44:31.774Z,123
2023-05-10T04:45:48.021Z,123
2023-05-10T04:47:04.257Z,129
2023-05-10T04:48:20.496Z,129
2023-05-10T04:49:36.726Z,129
2023-05-10T04:50:52.001Z,129
2023-05-10T04:52:07.257Z,135
2023-05-10T04:53:23.494Z,135
2023-05-10T04:54:39.743Z,135
2023-05-10T04:55:55.982Z,135
2023-05-10T04:57:12.220Z,135
2023-05-10T04:58:28.454Z,135
2023-05-10T04:59:44.686Z,140
2023-05-10T05:01:00.933Z,140
2023-05-10T05:02:17.165Z,140
2023-05-10T05:03:33.405Z,140
2023-05-10T05:04:49.660Z,140
2023-05-10T05:06:05.887Z,140
2023-05-10T05:07:22.138Z,140
2023-05-10T05:08:38.363Z,146
2023-05-10T05:11:09.865Z,146
2023-05-10T05:12:26.099Z,146
2023-05-10T05:13:42.353Z,146
2023-05-10T05:14:58.583Z,151
2023-05-10T05:16:14.820Z,151
2023-05-10T05:18:47.300Z,157
2023-05-10T05:20:03.545Z,157
2023-05-10T05:21:19.794Z,163
2023-05-10T05:22:36.026Z,163
2023-05-10T05:23:51.289Z,163
2023-05-10T05:26:23.778Z,168
2023-05-10T05:27:39.043Z,168
2023-05-10T05:28:54.288Z,174
2023-05-10T05:30:10.524Z,174
2023-05-10T05:31:26.773Z,180
2023-05-10T05:32:42.999Z,180
2023-05-10T05:33:59.249Z,185
2023-05-10T05:35:15.483Z,185
2023-05-10T05:36:31.727Z,191
2023-05-10T05:37:47.971Z,191
2023-05-10T05:39:04.212Z,196
2023-05-10T05:41:35.716Z,202
2023-05-10T05:42:50.975Z,208
2023-05-10T05:44:07.211Z,213
2023-05-10T05:45:23.441Z,213
2023-05-10T05:46:39.679Z,219
2023-05-10T05:47:55.929Z,219
2023-05-10T05:49:12.179Z,219
2023-05-10T05:50:28.393Z,225
2023-05-10T05:51:44.643Z,230
2023-05-10T05:53:00.890Z,236
2023-05-10T05:54:16.156Z,236
2023-05-10T05:55:31.403Z,241
2023-05-10T05:56:47.641Z,247
2023-05-10T05:58:03.875Z,247
2023-05-10T05:59:20.127Z,253
2023-05-10T06:00:36.361Z,253
2023-05-10T06:01:52.596Z,258
2023-05-10T06:04:25.084Z,264
2023-05-10T06:05:41.323Z,264
2023-05-10T06:06:57.569Z,270
2023-05-10T06:08:13.807Z,270
2023-05-10T06:09:30.042Z,275
2023-05-10T06:10:46.275Z,281
2023-05-10T06:12:02.514Z,286
2023-05-10T06:13:17.780Z,286
2023-05-10T06:14:34.009Z,292
2023-05-10T06:15:50.253Z,292
2023-05-10T06:17:06.488Z,292
2023-05-10T06:18:22.729Z,292
2023-05-10T06:19:38.979Z,292
2023-05-10T06:20:55.222Z,298
2023-05-10T06:22:11.445Z,298
2023-05-10T06:23:27.700Z,298
2023-05-10T06:24:43.929Z,303
2023-05-10T06:26:00.173Z,303
2023-05-10T06:27:16.418Z,303
2023-05-10T06:28:32.655Z,303
2023-05-10T06:29:47.900Z,303
2023-05-10T06:31:04.155Z,303
2023-05-10T06:32:20.382Z,303
2023-05-10T06:33:36.629Z,303
2023-05-10T06:34:52.874Z,303
2023-05-10T06:36:09.099Z,303
2023-05-10T06:37:25.344Z,309
2023-05-10T06:38:41.593Z,303
2023-05-10T06:39:57.835Z,298
2023-05-10T06:42:30.316Z,298
2023-05-10T06:45:02.788Z,298
2023-05-10T06:46:18.042Z,292
2023-05-10T06:47:34.283Z,292
2023-05-10T06:48:50.515Z,286
2023-05-10T06:50:06.781Z,286
2023-05-10T06:51:23.008Z,281
2023-05-10T06:52:39.241Z,281
2023-05-10T06:53:55.482Z,275
2023-05-10T06:55:11.730Z,281
2023-05-10T06:57:44.195Z,275
2023-05-10T06:58:59.455Z,270
2023-05-10T07:00:14.727Z,270
2023-05-10T07:01:30.961Z,270
2023-05-10T07:02:47.203Z,270
2023-05-10T07:04:03.441Z,270
2023-05-10T07:05:19.680Z,270
2023-05-10T07:06:35.923Z,264
2023-05-10T07:07:52.164Z,264
2023-05-10T07:09:08.406Z,264
2023-05-10T07:10:24.645Z,270
2023-05-10T07:11:39.906Z,270
2023-05-10T07:12:55.144Z,270
2023-05-10T07:14:11.405Z,270
2023-05-10T07:15:27.626Z,270
2023-05-10T07:16:43.882Z,275
2023-05-10T07:18:00.107Z,275
2023-05-10T07:19:16.354Z,275
2023-05-10T07:20:32.594Z,275
2023-05-10T07:21:48.839Z,275
2023-05-10T07:23:05.074Z,275
2023-05-10T07:24:21.310Z,286
2023-05-10T07:25:37.559Z,281
2023-05-10T07:28:10.027Z,275
2023-05-10T07:29:26.281Z,281
2023-05-10T07:31:58.736Z,281
2023-05-10T07:33:13.998Z,275
2023-05-10T07:34:29.257Z,275
2023-05-10T07:35:45.500Z,275
2023-05-10T07:37:01.731Z,275
2023-05-10T07:38:17.963Z,281
2023-05-10T07:39:34.219Z,281
2023-05-10T07:40:50.461Z,281
2023-05-10T07:42:06.694Z,281
2023-05-10T07:43:22.939Z,281
2023-05-10T07:44:39.174Z,281
2023-05-10T07:45:54.430Z,281
2023-05-10T07:47:09.689Z,275
2023-05-10T07:48:25.924Z,275
2023-05-10T07:50:58.419Z,270
2023-05-10T07:52:14.649Z,270
2023-05-10T07:53:30.898Z,264
2023-05-10T07:54:47.134Z,264
2023-05-10T07:56:03.364Z,264
2023-05-10T07:57:19.600Z,264
2023-05-10T07:58:35.850Z,264
2023-05-10T07:59:52.084Z,264
2023-05-10T08:01:08.326Z,264
2023-05-10T08:02:24.568Z,264
2023-05-10T08:03:39.818Z,264
2023-05-10T08:04:56.067Z,264
2023-05-10T08:06:12.307Z,264
2023-05-10T08:07:28.543Z,264
2023-05-10T08:08:44.782Z,270
2023-05-10T08:10:01.024Z,270
2023-05-10T08:11:17.255Z,275
2023-05-10T08:12:33.511Z,275
2023-05-10T08:13:49.736Z,275
2023-05-10T08:15:05.984Z,275
2023-05-10T08:16:22.213Z,281
2023-05-10T08:17:38.465Z,281
2023-05-10T08:18:54.692Z,292
2023-05-10T08:21:26.202Z,298
2023-05-10T08:22:42.438Z,303
2023-05-10T08:23:58.676Z,309
2023-05-10T08:25:14.918Z,309
2023-05-10T08:26:31.159Z,315
2023-05-10T08:29:03.636Z,315
2023-05-10T08:30:19.875Z,320
2023-05-10T08:31:36.116Z,331
2023-05-10T08:32:52.360Z,331
2023-05-10T08:34:08.605Z,343
2023-05-10T08:35:24.827Z,343
2023-05-10T08:36:40.086Z,348
2023-05-10T08:37:56.340Z,360
2023-05-10T08:39:12.573Z,365
2023-05-10T08:41:45.043Z,371
2023-05-10T08:43:00.319Z,360
2023-05-10T08:44:15.572Z,360
2023-05-10T08:45:31.811Z,348
2023-05-10T08:46:48.053Z,354
2023-05-10T08:48:04.289Z,365
2023-05-10T08:49:20.521Z,365
2023-05-10T08:50:36.776Z,365
2023-05-10T08:51:53.014Z,360
2023-05-10T08:53:09.248Z,365
2023-05-10T08:54:25.479Z,382
2023-05-10T08:55:40.754Z,388
2023-05-10T08:56:56.001Z,388
2023-05-10T08:59:28.494Z,393
2023-05-10T09:00:44.717Z,393
2023-05-10T09:02:00.976Z,399
2023-05-10T09:03:17.214Z,405
2023-05-10T09:04:33.435Z,433
2023-05-10T09:05:49.682Z,461
2023-05-10T09:07:05.925Z,466
2023-05-10T09:08:22.159Z,478
2023-05-10T09:09:38.404Z,478
2023-05-10T09:10:54.645Z,472
2023-05-10T09:12:10.875Z,483
2023-05-10T09:13:26.147Z,483
2023-05-10T09:14:42.381Z,483
2023-05-10T09:15:58.614Z,438
2023-05-10T09:17:14.851Z,360
2023-05-10T09:18:31.090Z,337
2023-05-10T09:19:47.337Z,337
2023-05-10T09:21:03.583Z,348
2023-05-10T09:22:19.818Z,331
2023-05-10T09:23:36.067Z,303
2023-05-10T09:24:52.295Z,309
2023-05-10T09:26:08.532Z,320
2023-05-10T09:27:24.777Z,343
2023-05-10T09:28:41.023Z,343
2023-05-10T09:29:56.268Z,315
2023-05-10T09:31:12.509Z,315
2023-05-10T09:32:28.760Z,348
2023-05-10T09:33:44.996Z,382
2023-05-10T09:35:01.226Z,405
2023-05-10T09:36:17.484Z,421
2023-05-10T09:37:33.719Z,427
2023-05-10T09:38:48.979Z,399
2023-05-10T09:40:04.240Z,376
2023-05-10T09:41:19.489Z,376
2023-05-10T09:42:35.724Z,399
2023-05-10T09:43:51.978Z,438
2023-05-10T09:45:08.216Z,455
2023-05-10T09:46:24.450Z,444
2023-05-10T09:47:40.700Z,433
2023-05-10T09:48:56.942Z,421
2023-05-10T09:50:13.163Z,421
2023-05-10T09:51:29.423Z,421
2023-05-10T09:52:45.648Z,405
2023-05-10T09:54:01.895Z,393
2023-05-10T09:55:18.126Z,393
2023-05-10T09:56:34.367Z,388
2023-05-10T09:57:49.624Z,376
2023-05-10T09:59:05.869Z,371
2023-05-10T10:00:22.110Z,393
2023-05-10T10:01:38.357Z,421
2023-05-10T10:02:54.595Z,444
2023-05-10T10:04:10.822Z,450
2023-05-10T10:05:27.077Z,466
2023-05-10T10:06:43.316Z,461
2023-05-10T10:07:59.543Z,450
2023-05-10T10:09:15.786Z,438
2023-05-10T10:10:32.029Z,416
2023-05-10T10:11:48.274Z,405
2023-05-10T10:13:04.510Z,388
2023-05-10T10:14:19.759Z,393
2023-05-10T10:15:35.999Z,393
2023-05-10T10:16:52.236Z,410
2023-05-10T10:18:08.481Z,421
2023-05-10T10:19:24.726Z,416
2023-05-10T10:20:40.958Z,410
2023-05-10T10:21:57.208Z,410
2023-05-10T10:23:13.440Z,388
2023-05-10T10:24:29.680Z,393
2023-05-10T10:25:45.929Z,405
2023-05-10T10:27:02.169Z,416
2023-05-10T10:28:18.405Z,433
2023-05-10T10:29:34.642Z,450
2023-05-10T10:30:49.905Z,466
2023-05-10T10:32:06.128Z,483
2023-05-10T10:34:38.625Z,489
2023-05-10T10:35:54.847Z,500
2023-05-10T10:37:11.097Z,511
2023-05-10T10:38:27.335Z,511
2023-05-10T10:39:43.574Z,517
2023-05-10T10:40:59.812Z,511
2023-05-10T10:42:16.046Z,495
2023-05-10T10:43:32.295Z,466
2023-05-10T10:44:48.534Z,433
2023-05-10T10:46:04.781Z,433
2023-05-10T10:47:20.036Z,438
2023-05-10T10:48:36.268Z,410
2023-05-10T10:49:52.504Z,354
2023-05-10T10:51:08.752Z,309
2023-05-10T10:52:24.981Z,292
2023-05-10T10:53:41.229Z,309
2023-05-10T10:54:57.470Z,348
2023-05-10T10:56:13.715Z,365
2023-05-10T10:57:29.946Z,354
2023-05-10T10:58:46.201Z,326
2023-05-10T11:00:02.441Z,286
2023-05-10T11:01:18.670Z,270
2023-05-10T11:02:34.918Z,253
2023-05-10T11:03:50.164Z,241
2023-05-10T11:05:06.414Z,225
2023-05-10T11:06:22.640Z,219
2023-05-10T11:07:38.877Z,219
2023-05-10T11:08:55.125Z,213
2023-05-10T11:10:11.370Z,213
2023-05-10T11:11:27.596Z,219
2023-05-10T11:12:43.844Z,219
2023-05-10T11:14:00.076Z,230
2023-05-10T11:15:16.329Z,236
2023-05-10T11:16:32.567Z,241
2023-05-10T11:17:48.802Z,236
2023-05-10T11:19:05.042Z,230
2023-05-10T11:20:20.311Z,230
2023-05-10T11:21:36.551Z,225
2023-05-10T11:22:52.784Z,230
2023-05-10T11:24:09.022Z,236
2023-05-10T11:25:25.257Z,236
2023-05-10T11:26:41.503Z,236
2023-05-10T11:27:57.744Z,230
2023-05-10T11:29:13.982Z,225
2023-05-10T11:31:46.457Z,236
2023-05-10T11:33:02.694Z,253
2023-05-10T11:34:18.940Z,270
2023-05-10T11:35:35.175Z,281
2023-05-10T11:36:50.431Z,303
2023-05-10T11:38:06.667Z,320
2023-05-10T11:39:22.918Z,326
2023-05-10T11:40:39.150Z,326
2023-05-10T11:41:55.396Z,331
2023-05-10T11:43:11.646Z,337
2023-05-10T11:44:27.874Z,343
2023-05-10T11:45:44.121Z,354
2023-05-10T11:47:00.360Z,376
2023-05-10T11:48:16.590Z,393
2023-05-10T11:49:32.845Z,399
2023-05-10T11:50:49.073Z,399
2023-05-10T11:52:05.322Z,388
2023-05-10T11:53:20.561Z,371
2023-05-10T11:54:36.802Z,354
2023-05-10T11:55:53.050Z,360
2023-05-10T11:57:09.288Z,365
2023-05-10T11:58:25.542Z,382
2023-05-10T11:59:41.769Z,388
2023-05-10T12:02:14.259Z,376
2023-05-10T12:03:30.490Z,371
2023-05-10T12:04:46.726Z,365
2023-05-10T12:06:02.963Z,348
2023-05-10T12:07:19.217Z,320
2023-05-10T12:08:35.458Z,309
2023-05-10T12:09:50.710Z,309
2023-05-10T12:11:06.944Z,331
2023-05-10T12:12:23.196Z,337
2023-05-10T12:13:39.435Z,309
2023-05-10T12:14:55.666Z,275
2023-05-10T12:16:11.913Z,247
2023-05-10T12:17:28.143Z,230
2023-05-10T12:18:44.394Z,219
2023-05-10T12:20:00.621Z,219
2023-05-10T12:21:16.874Z,219
2023-05-10T12:22:33.103Z,208
2023-05-10T12:23:49.342Z,191
2023-05-10T12:25:05.592Z,185
2023-05-10T12:26:20.843Z,180
2023-05-10T12:27:37.092Z,168
2023-05-10T12:28:53.316Z,163
2023-05-10T12:30:09.571Z,146
2023-05-10T12:31:25.808Z,146
2023-05-10T12:32:42.033Z,151
2023-05-10T12:33:58.280Z,146
2023-05-10T12:35:14.525Z,146
2023-05-10T12:36:30.753Z,140
2023-05-10T12:37:47.008Z,146
2023-05-10T12:39:03.244Z,151
2023-05-10T12:40:19.470Z,163
2023-05-10T12:41:35.719Z,168
2023-05-10T12:42:50.985Z,180
2023-05-10T12:44:07.208Z,180
2023-05-10T12:45:23.447Z,180
2023-05-10T12:46:39.693Z,180
2023-05-10T12:47:55.942Z,174
2023-05-10T12:49:12.184Z,168
2023-05-10T12:50:28.404Z,163
2023-05-10T12:51:44.662Z,168
2023-05-10T12:53:00.895Z,174
2023-05-10T12:54:17.126Z,174
2023-05-10T12:55:33.370Z,180
2023-05-10T12:56:49.613Z,174
2023-05-10T12:58:05.864Z,174
2023-05-10T12:59:21.107Z,174
2023-05-10T13:00:37.358Z,174
2023-05-10T13:03:09.835Z,174
2023-05-10T13:04:26.064Z,180
2023-05-10T13:05:42.316Z,191
2023-05-10T13:06:58.543Z,202
2023-05-10T13:08:14.790Z,208
2023-05-10T13:09:31.025Z,213
2023-05-10T13:10:47.263Z,219
2023-05-10T13:12:03.512Z,225
2023-05-10T13:13:19.738Z,230
2023-05-10T13:14:35.986Z,230
2023-05-10T13:15:51.235Z,225
2023-05-10T13:17:07.486Z,225
2023-05-10T13:18:23.724Z,225
2023-05-10T13:19:39.960Z,230
2023-05-10T13:20:56.205Z,236
2023-05-10T13:22:12.437Z,241
2023-05-10T13:23:28.689Z,241
2023-05-10T13:24:44.919Z,241
2023-05-10T13:26:01.172Z,241
2023-05-10T13:27:17.404Z,241
2023-05-10T13:28:33.647Z,241
2023-05-10T13:29:49.892Z,241
2023-05-10T13:31:06.116Z,247
2023-05-10T13:32:21.384Z,247
2023-05-10T13:33:37.618Z,241
2023-05-10T13:34:53.860Z,241
2023-05-10T13:36:10.097Z,241
2023-05-10T13:37:26.344Z,241
2023-05-10T13:38:42.573Z,247
2023-05-10T13:39:58.814Z,247
2023-05-10T13:41:15.063Z,253
2023-05-10T13:43:47.548Z,241
2023-05-10T13:45:03.770Z,247
2023-05-10T13:46:20.023Z,253
2023-05-10T13:48:52.505Z,270
2023-05-10T13:50:07.751Z,281
2023-05-10T13:51:23.992Z,298
2023-05-10T13:52:40.231Z,309
2023-05-10T13:53:55.499Z,315
2023-05-10T13:55:11.730Z,320
2023-05-10T13:56:27.983Z,320
2023-05-10T13:57:44.205Z,320
2023-05-10T13:59:00.460Z,315
2023-05-10T14:00:16.704Z,315
2023-05-10T14:01:32.938Z,309
2023-05-10T14:02:49.166Z,303
2023-05-10T14:04:05.421Z,303
2023-05-10T14:05:21.648Z,303
2023-05-10T14:06:37.884Z,309
2023-05-10T14:07:54.131Z,303
2023-05-10T14:09:10.378Z,298
2023-05-10T14:10:25.639Z,303
2023-05-10T14:11:41.862Z,303
2023-05-10T14:12:58.118Z,315
2023-05-10T14:14:14.345Z,331
2023-05-10T14:15:30.591Z,331
2023-05-10T14:16:46.833Z,331
2023-05-10T14:19:19.303Z,343
2023-05-10T14:20:35.549Z,354
2023-05-10T14:21:51.787Z,360
2023-05-10T14:23:08.037Z,371
2023-05-10T14:24:24.266Z,371
2023-05-10T14:25:40.503Z,371
2023-05-10T14:26:55.757Z,354
2023-05-10T14:28:11.999Z,337
2023-05-10T14:29:28.246Z,343
2023-05-10T14:30:44.485Z,320
2023-05-10T14:32:00.724Z,343
2023-05-10T14:33:16.961Z,354
2023-05-10T14:34:33.194Z,343
2023-05-10T14:35:49.440Z,315
2023-05-10T14:37:05.676Z,281
2023-05-10T14:38:21.917Z,270
2023-05-10T14:39:38.166Z,241
2023-05-10T14:40:54.408Z,253
2023-05-10T14:42:10.649Z,281
2023-05-10T14:43:25.899Z,286
2023-05-10T14:44:42.133Z,292
2023-05-10T14:45:58.372Z,275
2023-05-10T14:47:14.613Z,258
2023-05-10T14:48:30.856Z,281
2023-05-10T14:49:47.096Z,292
2023-05-10T14:51:03.336Z,298
2023-05-10T14:52:19.575Z,292
2023-05-10T14:53:35.819Z,292
2023-05-10T14:54:52.058Z,286
2023-05-10T14:56:08.303Z,292
2023-05-10T14:57:24.539Z,281
2023-05-10T14:58:40.769Z,275
2023-05-10T14:59:56.030Z,264
2023-05-10T15:01:12.265Z,253
2023-05-10T15:02:28.510Z,253
2023-05-10T15:05:00.989Z,247
2023-05-10T15:06:17.230Z,253
2023-05-10T15:07:33.465Z,253
2023-05-10T15:08:49.714Z,253
2023-05-10T15:10:05.962Z,247
2023-05-10T15:11:22.195Z,247
2023-05-10T15:12:38.427Z,247
2023-05-10T15:13:54.678Z,247
2023-05-10T15:15:10.907Z,247
2023-05-10T15:16:26.159Z,253
2023-05-10T15:17:42.402Z,253
2023-05-10T15:20:14.878Z,258
2023-05-10T15:21:31.130Z,258
2023-05-10T15:22:47.375Z,258
2023-05-10T15:24:03.612Z,253
2023-05-10T15:25:19.852Z,241
2023-05-10T15:26:36.097Z,247
2023-05-10T15:27:52.327Z,253
2023-05-10T15:29:08.564Z,236
2023-05-10T15:30:24.816Z,202
2023-05-10T15:31:41.041Z,196
2023-05-10T15:32:56.294Z,191
2023-05-10T15:35:28.772Z,213
2023-05-10T15:38:01.259Z,213
2023-05-10T15:39:16.534Z,213
2023-05-10T15:40:31.782Z,213
2023-05-10T15:41:48.024Z,213
2023-05-10T15:43:04.256Z,213
2023-05-10T15:44:20.498Z,213
2023-05-10T15:45:36.744Z,213
2023-05-10T15:46:52.968Z,213
2023-05-10T15:48:09.227Z,208
2023-05-10T15:49:25.452Z,202
2023-05-10T15:50:41.703Z,202
2023-05-10T15:51:56.951Z,196
2023-05-10T15:53:12.205Z,191
2023-05-10T15:54:28.457Z,180
2023-05-10T15:55:44.692Z,168
2023-05-10T15:57:00.936Z,168
2023-05-10T15:58:17.170Z,185
2023-05-10T15:59:33.413Z,185
2023-05-10T16:00:49.657Z,191
2023-05-10T16:02:05.899Z,191
2023-05-10T16:03:22.134Z,191
2023-05-10T16:04:38.366Z,185
2023-05-10T16:05:54.623Z,180
2023-05-10T16:07:10.856Z,180
2023-05-10T16:08:27.102Z,174
2023-05-10T16:09:42.356Z,168
2023-05-10T16:10:58.593Z,168
2023-05-10T16:13:31.078Z,168
2023-05-10T16:14:47.319Z,168
2023-05-10T16:16:03.554Z,163
2023-05-10T16:17:19.790Z,163
2023-05-10T16:18:36.025Z,157
2023-05-10T16:21:08.507Z,151
2023-05-10T16:22:24.743Z,151
2023-05-10T16:23:40.996Z,151
2023-05-10T16:24:57.233Z,151
2023-05-10T16:26:12.495Z,151
2023-05-10T16:28:44.976Z,163
2023-05-10T16:30:00.219Z,163
2023-05-10T16:31:15.494Z,168
2023-05-10T16:32:31.728Z,168
2023-05-10T16:33:47.963Z,168
2023-05-10T16:35:04.201Z,168
2023-05-10T16:36:20.448Z,168
2023-05-10T16:37:36.691Z,163
2023-05-10T16:38:52.924Z,157
2023-05-10T16:40:09.161Z,157
2023-05-10T16:41:25.408Z,157
2023-05-10T16:42:40.670Z,157
2023-05-10T16:43:55.918Z,163
2023-05-10T16:45:12.151Z,163
2023-05-10T16:46:28.398Z,163
2023-05-10T16:47:44.632Z,163
2023-05-10T16:49:00.868Z,168
2023-05-10T16:50:17.113Z,174
2023-05-10T16:51:33.365Z,174
2023-05-10T16:52:49.588Z,180
2023-05-10T16:54:05.838Z,180
2023-05-10T16:55:22.073Z,185
2023-05-10T16:56:38.309Z,185
2023-05-10T16:57:54.563Z,191
2023-05-10T16:59:10.803Z,191
2023-05-10T17:00:26.062Z,191
2023-05-10T17:01:42.302Z,185
2023-05-10T17:02:58.537Z,180
2023-05-10T17:04:14.766Z,174
2023-05-10T17:05:31.017Z,168
2023-05-10T17:06:47.251Z,163
2023-05-10T17:08:03.494Z,163
2023-05-10T17:09:19.740Z,157
2023-05-10T17:10:35.977Z,151
2023-05-10T17:11:52.210Z,146
2023-05-10T17:13:08.451Z,140
2023-05-10T17:14:24.693Z,135
2023-05-10T17:15:40.931Z,135
2023-05-10T17:16:56.189Z,129
2023-05-10T17:18:12.424Z,123
2023-05-10T17:19:28.662Z,118
2023-05-10T17:20:44.903Z,112
2023-05-10T17:22:01.140Z,106
2023-05-10T17:23:17.397Z,106
2023-05-10T17:24:33.636Z,101
2023-05-10T17:25:49.869Z,95
2023-05-10T17:27:06.117Z,95
2023-05-10T17:28:22.342Z,90
2023-05-10T17:29:38.595Z,84
2023-05-10T17:32:11.074Z,73
2023-05-10T17:33:26.318Z,67
2023-05-10T17:34:42.565Z,61
2023-05-10T17:35:58.799Z,56
2023-05-10T17:37:15.019Z,56
2023-05-10T17:38:31.256Z,50
2023-05-10T17:39:47.499Z,50
2023-05-10T17:41:03.745Z,45
2023-05-10T17:42:19.968Z,45
2023-05-10T17:43:36.226Z,39
2023-05-10T17:44:52.456Z,39
2023-05-10T17:46:08.692Z,39
2023-05-10T17:47:24.936Z,33
2023-05-10T17:48:41.186Z,33
2023-05-10T17:49:56.436Z,33
2023-05-10T17:51:12.670Z,33
2023-05-10T17:52:28.918Z,33
2023-05-10T17:53:45.160Z,33
2023-05-10T17:55:01.400Z,28
2023-05-10T17:56:17.626Z,28
2023-05-10T17:57:33.878Z,28
2023-05-10T17:58:50.109Z,28
2023-05-10T18:00:06.361Z,22
2023-05-10T18:01:22.588Z,22
2023-05-10T18:02:38.831Z,22
2023-05-10T18:03:55.084Z,22
2023-05-10T18:05:11.311Z,16
2023-05-10T18:06:26.566Z,16
2023-05-10T18:07:42.809Z,16
2023-05-10T18:08:58.078Z,16
2023-05-10T18:10:14.300Z,16
2023-05-10T18:11:30.551Z,16
2023-05-10T18:12:46.787Z,16
2023-05-10T18:14:03.041Z,11
2023-05-10T18:15:19.269Z,11
2023-05-10T18:16:35.511Z,11
2023-05-10T18:17:51.742Z,11
2023-05-10T18:19:07.998Z,11
2023-05-10T18:20:24.223Z,11
2023-05-10T18:21:40.463Z,11
2023-05-10T18:22:56.718Z,5
2023-05-10T18:24:12.956Z,5
2023-05-10T18:25:28.214Z,5
2023-05-10T18:26:44.449Z,5
2023-05-10T18:28:00.684Z,5
2023-05-10T18:29:16.935Z,5
2023-05-10T18:30:33.170Z,5
2023-05-10T18:31:49.404Z,5
2023-05-10T18:33:05.647Z,5
2023-05-10T18:34:21.877Z,0
2023-05-10T18:35:38.119Z,0
2023-05-10T18:36:54.361Z,0
2023-05-10T18:38:10.612Z,0
2023-05-10T18:39:26.855Z,0
2023-05-10T18:40:43.096Z,0
2023-05-10T18:41:58.333Z,0
2023-05-10T18:43:14.580Z,0
2023-05-10T18:45:47.063Z,0